Time;durP1;ratioP1;P1;durP2;ratioP2;P2;SDS_P1;SDS_P2;PMS_P1;PMS_P2;Temp;Humidity;BMP_temperature;BMP_pressure;BME280_temperature;BME280_humidity;BME280_pressure;Samples;Min_cycle;Max_cycle;Signal;HPM_P1;HPM_P2
2022/07/16 00:03:28;;;;;;;4.55;0.60;;;18.10;68.00;;;;;;6202674;23;20486;-68
2022/07/16 00:05:54;;;;;;;1.15;0.65;;;18.00;68.40;;;;;;6202908;23;20070;-68
2022/07/16 00:08:21;;;;;;;2.30;1.40;;;18.00;68.80;;;;;;6202381;23;20024;-68
2022/07/16 00:10:46;;;;;;;1.10;0.68;;;18.00;68.40;;;;;;6202712;23;20009;-68
2022/07/16 00:13:13;;;;;;;1.20;0.50;;;18.00;68.20;;;;;;6212493;23;20009;-68
2022/07/16 00:15:39;;;;;;;1.67;0.63;;;18.00;68.20;;;;;;6201794;23;20079;-68
2022/07/16 00:20:49;;;;;;;0.93;0.40;;;18.00;68.40;;;;;;6210924;23;20008;-68
2022/07/16 00:23:15;;;;;;;0.63;0.55;;;18.00;68.60;;;;;;6202990;23;20013;-68
2022/07/16 00:25:41;;;;;;;0.47;0.28;;;18.00;68.80;;;;;;6212143;23;20011;-68
2022/07/16 00:28:07;;;;;;;0.52;0.30;;;18.00;69.20;;;;;;6202111;23;20510;-68
2022/07/16 00:30:33;;;;;;;0.93;0.43;;;18.00;69.80;;;;;;6213383;23;20007;-68
2022/07/16 00:32:59;;;;;;;0.55;0.55;;;17.90;70.40;;;;;;6213587;23;20004;-68
2022/07/16 00:35:27;;;;;;;0.60;0.40;;;18.00;71.00;;;;;;6211793;23;20009;-68
2022/07/16 00:37:53;;;;;;;0.40;0.40;;;17.90;71.30;;;;;;6202538;23;20007;-69
2022/07/16 00:40:19;;;;;;;1.23;0.40;;;17.90;71.60;;;;;;6203629;23;20017;-68
2022/07/16 00:42:45;;;;;;;0.55;0.30;;;17.90;71.90;;;;;;6213118;23;20437;-68
2022/07/16 00:45:11;;;;;;;0.70;0.30;;;17.90;72.30;;;;;;6203288;23;20008;-68
2022/07/16 00:47:37;;;;;;;1.63;0.47;;;17.80;72.40;;;;;;6202573;23;20011;-68
2022/07/16 00:50:03;;;;;;;1.30;0.50;;;17.80;72.50;;;;;;6203511;23;20012;-68
2022/07/16 00:52:29;;;;;;;2.35;0.32;;;17.80;72.40;;;;;;6213107;23;20043;-68
2022/07/16 00:54:55;;;;;;;0.63;0.50;;;17.80;72.10;;;;;;6203675;23;20435;-68
2022/07/16 00:57:20;;;;;;;1.10;0.70;;;17.70;72.10;;;;;;6202485;23;20012;-68
2022/07/16 00:59:46;;;;;;;3.15;0.40;;;17.70;71.90;;;;;;6203541;23;20013;-68
2022/07/16 01:02:12;;;;;;;2.17;0.70;;;17.70;71.80;;;;;;6202126;23;20012;-68
2022/07/16 01:04:38;;;;;;;0.70;0.30;;;17.70;72.80;;;;;;6212831;23;20023;-68
2022/07/16 01:07:04;;;;;;;1.60;0.50;;;17.60;72.50;;;;;;6203038;23;20001;-68
2022/07/16 01:09:32;;;;;;;1.10;0.63;;;17.60;72.00;;;;;;6205309;23;20055;-68
2022/07/16 01:11:58;;;;;;;0.52;0.30;;;17.60;72.00;;;;;;6205271;23;20012;-68
2022/07/16 01:14:25;;;;;;;1.33;0.40;;;17.60;71.50;;;;;;6215343;23;20013;-68
2022/07/16 01:16:51;;;;;;;1.25;0.50;;;17.60;71.50;;;;;;6215017;23;20009;-68
2022/07/16 01:19:16;;;;;;;3.10;0.60;;;17.60;71.40;;;;;;6213494;23;20334;-68
2022/07/16 01:21:45;;;;;;;1.42;0.60;;;17.60;70.90;;;;;;6204932;23;20013;-68
2022/07/16 01:24:11;;;;;;;1.23;0.28;;;17.60;70.90;;;;;;6205617;23;20320;-68
2022/07/16 01:26:37;;;;;;;0.47;0.40;;;17.60;71.50;;;;;;6214297;23;20003;-68
2022/07/16 01:29:03;;;;;;;3.50;0.60;;;17.60;71.70;;;;;;6205545;23;20534;-68
2022/07/16 01:31:28;;;;;;;1.58;0.40;;;17.60;71.40;;;;;;6214970;23;20389;-68
2022/07/16 01:36:39;;;;;;;0.50;0.30;;;17.60;70.60;;;;;;6204629;23;20009;-68
2022/07/16 01:39:05;;;;;;;1.13;0.22;;;17.50;70.20;;;;;;6204500;23;20008;-68
2022/07/16 01:41:31;;;;;;;1.67;0.43;;;17.50;70.40;;;;;;6214067;23;20008;-68
2022/07/16 01:43:57;;;;;;;0.47;0.47;;;17.60;70.30;;;;;;6204669;23;20074;-68
2022/07/16 01:46:23;;;;;;;1.42;0.35;;;17.60;70.40;;;;;;6204630;23;20056;-68
2022/07/16 01:48:49;;;;;;;0.28;0.20;;;17.50;70.60;;;;;;6213207;23;20008;-68
2022/07/16 01:51:15;;;;;;;0.82;0.40;;;17.50;70.10;;;;;;6202471;23;20062;-68
2022/07/16 01:53:41;;;;;;;1.50;0.40;;;17.50;70.90;;;;;;6214444;23;20015;-68
2022/07/16 01:56:07;;;;;;;0.82;0.30;;;17.50;71.40;;;;;;6203930;23;20017;-68
2022/07/16 01:58:33;;;;;;;1.05;0.38;;;17.40;71.30;;;;;;6214007;23;20019;-68
2022/07/16 02:00:59;;;;;;;3.40;0.50;;;17.40;71.50;;;;;;6214493;23;20131;-68
2022/07/16 02:03:24;;;;;;;1.75;0.47;;;17.40;71.60;;;;;;6213704;23;20004;-68
2022/07/16 02:05:50;;;;;;;1.40;0.47;;;17.40;71.50;;;;;;6203650;23;20012;-69
2022/07/16 02:08:16;;;;;;;1.55;0.52;;;17.40;70.80;;;;;;6203994;23;20001;-68
2022/07/16 02:10:42;;;;;;;1.35;0.88;;;17.40;70.20;;;;;;6213704;23;20008;-69
2022/07/16 02:13:08;;;;;;;1.10;0.52;;;17.40;70.00;;;;;;6204271;23;20015;-69
2022/07/16 02:15:35;;;;;;;1.05;0.60;;;17.40;69.70;;;;;;6203070;23;20618;-68
2022/07/16 02:18:01;;;;;;;0.60;0.50;;;17.40;69.90;;;;;;6201980;23;20012;-68
2022/07/16 02:20:27;;;;;;;1.10;0.40;;;17.40;70.00;;;;;;6203059;23;20028;-69
2022/07/16 02:22:54;;;;;;;1.85;0.70;;;17.50;69.80;;;;;;6213563;23;20042;-68
2022/07/16 02:25:20;;;;;;;1.15;0.60;;;17.50;69.30;;;;;;6203415;23;20009;-68
2022/07/16 02:30:30;;;;;;;3.28;0.68;;;17.50;68.80;;;;;;6202931;23;20012;-68
2022/07/16 02:32:56;;;;;;;1.90;0.45;;;17.50;68.70;;;;;;6202983;23;20012;-68
2022/07/16 02:35:22;;;;;;;4.18;0.70;;;17.50;68.50;;;;;;6203694;23;20020;-68
2022/07/16 02:37:48;;;;;;;1.38;0.68;;;17.50;68.60;;;;;;6202838;23;20012;-68
2022/07/16 02:40:13;;;;;;;0.52;0.38;;;17.50;68.60;;;;;;6213100;23;20036;-68
2022/07/16 02:42:40;;;;;;;1.95;0.55;;;17.40;68.60;;;;;;6203331;23;20024;-68
2022/07/16 02:45:07;;;;;;;0.90;0.50;;;17.40;68.50;;;;;;6202742;23;20005;-68
2022/07/16 02:47:34;;;;;;;3.90;0.52;;;17.50;68.50;;;;;;6212422;23;20016;-69
2022/07/16 02:50:00;;;;;;;1.00;0.52;;;17.50;68.50;;;;;;6212979;23;20024;-69
2022/07/16 02:52:25;;;;;;;1.08;0.60;;;17.50;68.20;;;;;;6214075;23;20358;-69
2022/07/16 02:54:51;;;;;;;1.40;0.40;;;17.50;68.30;;;;;;6203505;23;20008;-69
2022/07/16 02:57:17;;;;;;;0.50;0.50;;;17.50;68.50;;;;;;6213705;23;20018;-69
2022/07/16 02:59:43;;;;;;;0.38;0.38;;;17.50;68.40;;;;;;6204525;23;20091;-69
2022/07/16 03:02:09;;;;;;;0.70;0.40;;;17.50;68.10;;;;;;6203735;23;20038;-70
2022/07/16 03:04:34;;;;;;;1.02;0.57;;;17.50;68.30;;;;;;6204042;23;20047;-69
2022/07/16 03:07:00;;;;;;;2.30;0.40;;;17.50;68.20;;;;;;6204162;23;20088;-70
2022/07/16 03:09:26;;;;;;;0.30;0.20;;;17.50;68.00;;;;;;6202224;23;20008;-70
2022/07/16 03:11:51;;;;;;;0.80;0.35;;;17.50;67.60;;;;;;6202206;23;20009;-70
2022/07/16 03:14:17;;;;;;;1.20;0.50;;;17.50;67.60;;;;;;6204341;23;20190;-70
2022/07/16 03:16:43;;;;;;;1.17;0.40;;;17.50;67.70;;;;;;6213914;23;20083;-71
2022/07/16 03:19:08;;;;;;;1.25;0.40;;;17.50;67.30;;;;;;6213998;23;20417;-69
2022/07/16 03:21:34;;;;;;;5.68;0.60;;;17.50;67.20;;;;;;6204190;23;20012;-70
2022/07/16 03:24:00;;;;;;;0.60;0.20;;;17.50;67.10;;;;;;6213785;23;20043;-71
2022/07/16 03:26:26;;;;;;;1.77;0.40;;;17.60;66.70;;;;;;6203729;23;20019;-70
2022/07/16 03:28:52;;;;;;;0.95;0.40;;;17.60;66.90;;;;;;6203337;23;20080;-70
2022/07/16 03:31:18;;;;;;;1.42;0.50;;;17.60;67.10;;;;;;6203865;23;20017;-70
2022/07/16 03:33:44;;;;;;;0.40;0.40;;;17.60;66.60;;;;;;6213254;23;20023;-70
2022/07/16 03:36:10;;;;;;;2.78;0.50;;;17.70;66.70;;;;;;6202069;23;20016;-70
2022/07/16 03:41:21;;;;;;;0.52;0.50;;;17.60;66.60;;;;;;6201911;23;20665;-70
2022/07/16 03:43:46;;;;;;;0.70;0.43;;;17.70;66.70;;;;;;6213224;23;20004;-69
2022/07/16 03:46:13;;;;;;;2.63;0.40;;;17.70;66.70;;;;;;6203368;23;20016;-70
2022/07/16 03:48:42;;;;;;;2.55;0.80;;;17.70;66.60;;;;;;6202357;23;20016;-69
2022/07/16 03:51:08;;;;;;;0.80;0.43;;;17.80;66.70;;;;;;6213322;23;20016;-69
2022/07/16 03:53:36;;;;;;;1.70;0.43;;;17.70;66.70;;;;;;6202935;23;20008;-70
2022/07/16 03:56:01;;;;;;;1.50;0.60;;;17.70;66.50;;;;;;6202788;23;20027;-70
2022/07/16 03:58:28;;;;;;;2.40;0.40;;;17.70;66.60;;;;;;6202696;23;20413;-69
2022/07/16 04:00:54;;;;;;;2.75;0.75;;;17.70;66.70;;;;;;6213108;23;20012;-69
2022/07/16 04:03:20;;;;;;;1.58;0.45;;;17.70;66.80;;;;;;6202242;23;20017;-69
2022/07/16 04:05:45;;;;;;;3.60;0.60;;;17.80;66.80;;;;;;6203712;23;20040;-69
2022/07/16 04:08:11;;;;;;;1.20;0.30;;;17.80;66.70;;;;;;6201631;23;20110;-70
2022/07/16 04:10:37;;;;;;;0.25;0.25;;;17.80;66.30;;;;;;6212378;23;20008;-70
2022/07/16 04:13:03;;;;;;;0.98;0.50;;;17.90;66.10;;;;;;6213016;23;20016;-69
2022/07/16 04:15:29;;;;;;;1.63;0.30;;;17.80;66.00;;;;;;6212858;23;20088;-69
2022/07/16 04:17:55;;;;;;;0.85;0.43;;;17.80;66.00;;;;;;6201973;23;20043;-70
2022/07/16 04:20:21;;;;;;;3.17;0.88;;;17.80;66.00;;;;;;6200823;23;20040;-68
2022/07/16 04:22:47;;;;;;;1.67;0.60;;;17.90;66.20;;;;;;6213027;23;20083;-70
2022/07/16 04:25:13;;;;;;;1.48;0.50;;;17.90;65.60;;;;;;6212921;23;20010;-69
2022/07/16 04:27:40;;;;;;;0.75;0.55;;;17.90;65.20;;;;;;6202745;23;20035;-69
2022/07/16 04:30:07;;;;;;;1.52;0.50;;;17.90;65.40;;;;;;6213155;23;20020;-69
2022/07/16 04:32:34;;;;;;;3.53;0.50;;;17.90;64.60;;;;;;6202756;22;20040;-69
2022/07/16 04:35:00;;;;;;;0.77;0.50;;;17.90;64.40;;;;;;6213221;23;20019;-69
2022/07/16 04:37:26;;;;;;;0.95;0.70;;;17.90;64.40;;;;;;6212987;23;20013;-68
2022/07/16 04:39:52;;;;;;;3.35;0.65;;;17.80;64.60;;;;;;6203516;23;20067;-69
2022/07/16 04:42:18;;;;;;;3.35;0.88;;;17.80;64.60;;;;;;6204928;23;20454;-69
2022/07/16 04:44:44;;;;;;;1.77;0.50;;;17.80;64.70;;;;;;6205548;23;20011;-68
2022/07/16 04:47:10;;;;;;;0.77;0.40;;;17.80;64.70;;;;;;6214098;23;20001;-69
2022/07/16 04:49:36;;;;;;;0.73;0.43;;;17.90;64.80;;;;;;6215052;23;20039;-69
2022/07/16 04:52:02;;;;;;;1.20;0.50;;;17.90;64.40;;;;;;6205623;23;20008;-69
2022/07/16 04:54:28;;;;;;;1.33;0.57;;;17.90;64.60;;;;;;6204826;23;20020;-70
2022/07/16 04:56:54;;;;;;;1.67;0.40;;;18.00;64.30;;;;;;6205044;23;20015;-68
2022/07/16 04:59:20;;;;;;;1.00;0.40;;;18.00;64.30;;;;;;6205280;23;20035;-69
2022/07/16 05:01:45;;;;;;;0.63;0.63;;;18.10;64.40;;;;;;6215034;23;20001;-69
2022/07/16 05:04:11;;;;;;;1.30;0.57;;;18.10;64.20;;;;;;6202877;23;20012;-68
2022/07/16 05:06:37;;;;;;;1.65;0.85;;;18.10;64.20;;;;;;6214817;23;20032;-69
2022/07/16 05:09:03;;;;;;;0.70;0.70;;;18.20;64.10;;;;;;6204621;23;20347;-69
2022/07/16 05:11:29;;;;;;;1.83;0.68;;;18.20;64.20;;;;;;6215024;23;20073;-68
2022/07/16 05:13:55;;;;;;;1.23;0.70;;;18.30;64.50;;;;;;6205462;23;20091;-69
2022/07/16 05:16:22;;;;;;;1.95;1.05;;;18.30;64.30;;;;;;6204453;23;20512;-68
2022/07/16 05:18:49;;;;;;;2.45;0.60;;;18.40;64.10;;;;;;6204934;23;20346;-69
2022/07/16 05:21:15;;;;;;;1.73;0.90;;;18.40;64.10;;;;;;6215048;23;20012;-67
2022/07/16 05:23:41;;;;;;;1.25;0.52;;;18.50;64.00;;;;;;6204737;23;20040;-68
2022/07/16 05:26:07;;;;;;;2.35;0.80;;;18.50;64.10;;;;;;6215008;23;20035;-67
2022/07/16 05:28:33;;;;;;;4.65;0.80;;;18.50;63.90;;;;;;6204256;23;20005;-68
2022/07/16 05:30:59;;;;;;;2.35;0.80;;;18.50;63.90;;;;;;6204184;23;20005;-69
2022/07/16 05:33:24;;;;;;;2.00;0.70;;;18.60;63.90;;;;;;6204873;23;20095;-68
2022/07/16 05:35:50;;;;;;;4.93;1.00;;;18.60;63.90;;;;;;6214247;23;20624;-68
2022/07/16 05:38:17;;;;;;;1.55;1.00;;;18.60;64.20;;;;;;6213684;23;20070;-68
2022/07/16 05:40:43;;;;;;;0.80;0.70;;;18.60;64.20;;;;;;6214572;23;20001;-68
2022/07/16 05:43:08;;;;;;;2.30;0.70;;;18.70;64.10;;;;;;6204645;23;20054;-68
2022/07/16 05:45:34;;;;;;;0.85;0.70;;;18.70;64.20;;;;;;6204107;23;20008;-68
2022/07/16 05:48:00;;;;;;;1.35;0.70;;;18.80;64.40;;;;;;6203428;23;20601;-68
2022/07/16 05:50:26;;;;;;;2.35;0.85;;;18.80;64.30;;;;;;6204227;23;20338;-67
2022/07/16 05:52:52;;;;;;;2.92;0.55;;;18.80;64.60;;;;;;6213820;23;20011;-68
2022/07/16 05:55:18;;;;;;;1.20;0.70;;;18.90;64.80;;;;;;6204323;23;20084;-67
2022/07/16 05:57:44;;;;;;;0.80;0.60;;;18.80;64.40;;;;;;6213879;23;20777;-67
2022/07/16 06:00:11;;;;;;;2.42;0.75;;;18.80;64.60;;;;;;6203326;23;20080;-68
2022/07/16 06:02:41;;;;;;;2.50;0.90;;;18.80;64.80;;;;;;6203772;23;20024;-67
2022/07/16 06:05:07;;;;;;;1.88;0.80;;;18.80;65.40;;;;;;6203480;23;20008;-67
2022/07/16 06:07:34;;;;;;;2.00;1.00;;;18.80;65.30;;;;;;6202686;23;20009;-68
2022/07/16 06:09:59;;;;;;;0.63;0.60;;;18.80;65.30;;;;;;6214030;23;20437;-68
2022/07/16 06:12:25;;;;;;;2.20;0.88;;;18.80;65.50;;;;;;6203912;23;20012;-68
2022/07/16 06:14:51;;;;;;;2.13;1.02;;;18.80;65.50;;;;;;6203689;23;20020;-67
2022/07/16 06:17:17;;;;;;;1.95;1.00;;;18.80;65.40;;;;;;6203452;23;20020;-68
2022/07/16 06:19:43;;;;;;;1.88;0.90;;;18.80;66.00;;;;;;6204478;23;20071;-67
2022/07/16 06:22:10;;;;;;;1.48;0.82;;;18.80;66.00;;;;;;6203624;23;20012;-67
2022/07/16 06:24:36;;;;;;;2.55;0.90;;;18.80;68.10;;;;;;6203767;23;20031;-67
2022/07/16 06:27:03;;;;;;;2.72;1.00;;;18.90;69.10;;;;;;6203348;23;20008;-67
2022/07/16 06:29:29;;;;;;;1.33;0.70;;;18.80;70.20;;;;;;6204356;23;20020;-68
2022/07/16 06:31:55;;;;;;;1.90;1.00;;;18.80;70.30;;;;;;6204545;23;20074;-67
2022/07/16 06:34:21;;;;;;;1.88;0.90;;;18.70;70.50;;;;;;6204257;23;20009;-68
2022/07/16 06:36:47;;;;;;;2.00;1.00;;;18.70;71.60;;;;;;6203350;23;20039;-68
2022/07/16 06:39:13;;;;;;;3.78;1.30;;;18.60;73.10;;;;;;6214239;23;20009;-67
2022/07/16 06:41:39;;;;;;;3.47;1.13;;;18.60;73.90;;;;;;6203696;23;20051;-67
2022/07/16 06:44:07;;;;;;;1.63;0.98;;;18.50;74.80;;;;;;6202300;23;20009;-67
2022/07/16 06:46:33;;;;;;;2.67;1.20;;;18.50;76.00;;;;;;6202912;23;20004;-68
2022/07/16 06:48:59;;;;;;;2.47;1.20;;;18.40;76.20;;;;;;6212572;23;20015;-68
2022/07/16 06:51:26;;;;;;;2.72;0.93;;;18.30;77.20;;;;;;6202242;23;20091;-67
2022/07/16 06:53:52;;;;;;;2.05;1.10;;;18.30;78.00;;;;;;6202331;23;20008;-66
2022/07/16 06:56:18;;;;;;;1.98;1.10;;;18.30;78.00;;;;;;6202797;23;20043;-67
2022/07/16 06:58:44;;;;;;;2.08;1.30;;;18.20;77.70;;;;;;6202540;23;20008;-67
2022/07/16 07:01:09;;;;;;;3.20;1.58;;;18.20;78.40;;;;;;6202141;23;20009;-66
2022/07/16 07:03:39;;;;;;;2.55;1.40;;;18.20;78.60;;;;;;6202418;23;20012;-67
2022/07/16 07:06:05;;;;;;;1.92;1.15;;;18.20;78.20;;;;;;6212735;23;20734;-76
2022/07/16 07:08:31;;;;;;;1.50;1.40;;;18.20;78.80;;;;;;6211741;23;20036;-66
2022/07/16 07:10:59;;;;;;;2.58;1.38;;;18.30;79.20;;;;;;6201115;23;20000;-66
2022/07/16 07:13:26;;;;;;;3.78;1.42;;;18.50;78.80;;;;;;6203353;23;20012;-66
2022/07/16 07:15:52;;;;;;;2.83;1.33;;;18.60;78.50;;;;;;6202229;23;20001;-67
2022/07/16 07:18:18;;;;;;;2.38;1.40;;;18.70;77.30;;;;;;6202028;23;20017;-67
2022/07/16 07:20:44;;;;;;;3.25;1.30;;;18.90;77.00;;;;;;6203299;23;19996;-66
2022/07/16 07:23:10;;;;;;;1.52;1.30;;;18.90;76.40;;;;;;6203245;23;20040;-66
2022/07/16 07:25:36;;;;;;;3.25;1.58;;;19.00;76.00;;;;;;6203819;23;20008;-66
2022/07/16 07:28:02;;;;;;;1.25;0.95;;;19.10;75.00;;;;;;6213250;23;20315;-66
2022/07/16 07:30:28;;;;;;;3.03;1.10;;;19.30;74.80;;;;;;6202842;23;20075;-66
2022/07/16 07:32:54;;;;;;;4.03;1.35;;;19.40;74.70;;;;;;6212725;23;20008;-67
2022/07/16 07:35:20;;;;;;;1.67;1.50;;;19.50;72.40;;;;;;6200906;23;20015;-68
2022/07/16 07:37:46;;;;;;;1.70;1.20;;;19.50;72.00;;;;;;6212112;23;20036;-70
2022/07/16 07:40:12;;;;;;;0.95;0.88;;;19.50;71.80;;;;;;6212015;23;20008;-70
2022/07/16 07:42:38;;;;;;;5.75;1.13;;;19.60;71.80;;;;;;6201492;23;20665;-67
2022/07/16 07:45:04;;;;;;;2.30;1.10;;;19.80;71.60;;;;;;6211052;23;20011;-66
2022/07/16 07:47:31;;;;;;;3.70;1.17;;;20.00;70.40;;;;;;6211440;23;20004;-67
2022/07/16 07:49:58;;;;;;;2.88;1.30;;;20.10;69.90;;;;;;6211686;23;20082;-68
2022/07/16 07:52:24;;;;;;;1.17;1.05;;;20.10;69.40;;;;;;6202265;23;20016;-68
2022/07/16 07:54:50;;;;;;;1.17;0.93;;;20.10;68.10;;;;;;6201377;23;20031;-68
2022/07/16 07:57:16;;;;;;;1.27;1.00;;;20.10;66.80;;;;;;6201511;23;20024;-69
2022/07/16 07:59:42;;;;;;;3.30;1.40;;;20.10;67.10;;;;;;6202199;23;20008;-64
2022/07/16 08:02:08;;;;;;;2.58;1.02;;;20.20;67.50;;;;;;6199317;23;20020;-68
2022/07/16 08:04:34;;;;;;;2.85;1.23;;;20.40;67.60;;;;;;6203244;23;20008;-67
2022/07/16 08:07:00;;;;;;;1.02;0.90;;;20.60;66.70;;;;;;6212066;23;20439;-69
2022/07/16 08:09:26;;;;;;;2.83;1.08;;;20.70;65.20;;;;;;6202942;23;20005;-68
2022/07/16 08:11:51;;;;;;;1.80;0.73;;;20.60;65.00;;;;;;6203083;23;20047;-66
2022/07/16 08:14:17;;;;;;;4.00;1.20;;;20.60;65.90;;;;;;6203603;23;20008;-66
2022/07/16 08:16:43;;;;;;;2.97;1.05;;;20.70;64.80;;;;;;6214367;23;20024;-65
2022/07/16 08:19:09;;;;;;;1.38;0.80;;;20.70;65.10;;;;;;6215504;23;20040;-67
2022/07/16 08:21:35;;;;;;;1.52;1.02;;;20.80;64.80;;;;;;6214564;23;20008;-67
2022/07/16 08:26:46;;;;;;;1.38;0.93;;;20.90;63.80;;;;;;6204897;23;20724;-67
2022/07/16 08:29:12;;;;;;;2.08;0.90;;;20.90;64.50;;;;;;6204834;23;20004;-72
2022/07/16 08:31:38;;;;;;;2.00;1.10;;;21.10;63.50;;;;;;6205287;23;20104;-65
2022/07/16 08:34:03;;;;;;;3.28;1.10;;;21.10;63.00;;;;;;6205701;23;20131;-65
2022/07/16 08:36:29;;;;;;;1.13;1.02;;;21.20;63.00;;;;;;6214524;23;20435;-65
2022/07/16 08:38:55;;;;;;;1.08;0.85;;;21.30;63.00;;;;;;6205264;23;20178;-65
2022/07/16 08:41:21;;;;;;;2.85;0.93;;;21.40;60.90;;;;;;6205069;23;20016;-65
2022/07/16 08:43:48;;;;;;;2.55;0.90;;;21.40;60.70;;;;;;6205200;23;20035;-66
2022/07/16 08:46:15;;;;;;;2.15;1.00;;;21.40;60.30;;;;;;6205549;23;20009;-67
2022/07/16 08:48:42;;;;;;;2.38;0.95;;;21.40;61.00;;;;;;6205498;23;20004;-66
2022/07/16 08:51:09;;;;;;;0.98;0.70;;;21.40;61.00;;;;;;6215053;23;20008;-65
2022/07/16 08:53:37;;;;;;;1.15;0.70;;;21.50;61.10;;;;;;6215634;23;20841;-66
2022/07/16 08:56:03;;;;;;;4.53;1.90;;;21.50;60.60;;;;;;6205632;23;20008;-66
2022/07/16 08:58:31;;;;;;;6.07;2.47;;;21.60;59.80;;;;;;6214554;23;20008;-66
2022/07/16 09:00:57;;;;;;;2.15;0.80;;;21.70;59.60;;;;;;6205365;23;20009;-66
2022/07/16 09:03:24;;;;;;;2.70;0.60;;;21.70;58.90;;;;;;6215076;23;20038;-66
2022/07/16 09:05:50;;;;;;;2.00;0.57;;;21.60;58.50;;;;;;6214852;23;20091;-66
2022/07/16 09:08:17;;;;;;;1.20;0.88;;;21.70;58.40;;;;;;6203414;23;20008;-67
2022/07/16 09:10:43;;;;;;;0.88;0.65;;;21.80;59.10;;;;;;6215065;23;20008;-67
2022/07/16 09:13:13;;;;;;;0.75;0.68;;;21.80;59.20;;;;;;6214515;23;20008;-66
2022/07/16 09:15:43;;;;;;;1.67;0.90;;;22.00;59.00;;;;;;6211440;23;20053;-66
2022/07/16 09:18:25;;;;;;;1.83;0.85;;;22.10;58.50;;;;;;6210322;23;20047;-66
2022/07/16 09:20:57;;;;;;;2.15;1.05;;;22.20;58.10;;;;;;6202770;23;20508;-68
2022/07/16 09:23:30;;;;;;;2.72;0.80;;;22.30;57.10;;;;;;6202527;23;20066;-68
2022/07/16 09:26:01;;;;;;;2.38;0.90;;;22.40;55.90;;;;;;6213316;23;20090;-67
2022/07/16 09:28:48;;;;;;;2.47;0.80;;;22.50;55.60;;;;;;6210123;23;20008;-68
2022/07/16 09:31:32;;;;;;;;;;;22.50;54.90;;;;;;6214019;23;20385;-67
2022/07/16 09:34:10;;;;;;;1.02;0.63;;;22.50;55.20;;;;;;6204822;23;20441;-68
2022/07/16 09:36:38;;;;;;;1.90;0.60;;;22.50;54.70;;;;;;6204391;23;20024;-68
2022/07/16 09:39:06;;;;;;;1.45;0.65;;;22.50;55.10;;;;;;6201178;23;20016;-67
2022/07/16 09:41:47;;;;;;;1.30;0.68;;;22.50;54.70;;;;;;6212343;23;20015;-71
2022/07/16 09:44:42;;;;;;;2.65;0.65;;;22.60;53.20;;;;;;6203576;23;20008;-77
2022/07/16 09:47:11;;;;;;;1.05;0.75;;;22.40;54.20;;;;;;6201187;23;20455;-75
2022/07/16 09:49:39;;;;;;;1.10;0.70;;;22.20;54.90;;;;;;6204369;23;20066;-74
2022/07/16 09:52:06;;;;;;;1.83;0.70;;;22.10;54.30;;;;;;6215262;23;20086;-74
2022/07/16 09:54:35;;;;;;;1.30;1.02;;;22.00;54.70;;;;;;6204147;23;20013;-74
2022/07/16 09:57:18;;;;;;;3.00;1.05;;;22.00;54.60;;;;;;6203438;23;20210;-73
2022/07/16 09:59:45;;;;;;;2.88;1.40;;;22.10;54.40;;;;;;6202813;23;20013;-77
2022/07/16 10:02:12;;;;;;;1.55;0.98;;;22.30;54.00;;;;;;6202166;23;20131;-74
2022/07/16 10:04:38;;;;;;;1.63;1.20;;;22.50;53.70;;;;;;6203576;23;20307;-74
2022/07/16 10:07:04;;;;;;;1.48;0.90;;;22.50;52.10;;;;;;6211160;23;20081;-75
2022/07/16 10:09:30;;;;;;;1.90;1.15;;;22.40;52.60;;;;;;6201802;23;20089;-74
2022/07/16 10:12:01;;;;;;;1.85;1.27;;;22.20;53.80;;;;;;6202331;23;20016;-74
2022/07/16 10:14:27;;;;;;;2.60;1.10;;;22.10;53.90;;;;;;6201960;23;20127;-75
2022/07/16 10:16:59;;;;;;;2.15;1.23;;;22.10;54.00;;;;;;6211455;23;20017;-74
2022/07/16 10:19:33;;;;;;;5.25;1.30;;;22.00;54.70;;;;;;6201743;23;20008;-74
2022/07/16 10:22:13;;;;;;;2.85;0.95;;;22.10;53.40;;;;;;6204234;23;20012;-74
2022/07/16 10:24:52;;;;;;;2.30;0.60;;;22.20;53.30;;;;;;6214253;23;20005;-77
2022/07/16 10:27:34;;;;;;;2.42;1.08;;;22.30;53.10;;;;;;6201674;23;20015;-73
2022/07/16 10:30:31;;;;;;;1.88;0.73;;;22.20;52.90;;;;;;6204221;23;20031;-74
2022/07/16 10:32:59;;;;;;;4.53;0.70;;;22.10;52.40;;;;;;6204510;23;20070;-74
2022/07/16 10:35:39;;;;;;;4.30;1.60;;;22.00;52.70;;;;;;6213232;23;20008;-74
2022/07/16 10:38:13;;;;;;;6.22;3.50;;;21.90;53.30;;;;;;6212371;23;20008;-74
2022/07/16 10:40:42;;;;;;;3.42;1.55;;;21.90;53.50;;;;;;6213043;23;20004;-73
2022/07/16 10:43:10;;;;;;;2.50;1.27;;;22.10;52.70;;;;;;6203200;23;20019;-74
2022/07/16 10:45:57;;;;;;;3.70;1.20;;;22.10;51.80;;;;;;6212990;23;20005;-75
2022/07/16 10:48:28;;;;;;;3.03;0.80;;;22.10;53.00;;;;;;6201604;23;20019;-74
2022/07/16 10:51:17;;;;;;;1.65;0.80;;;22.00;52.80;;;;;;6211515;23;20005;-74
2022/07/16 10:53:58;;;;;;;4.57;0.90;;;22.10;52.30;;;;;;6203622;23;20040;-74
2022/07/16 10:56:44;;;;;;;0.95;0.70;;;22.10;52.90;;;;;;6202326;23;20023;-74
2022/07/16 10:59:15;;;;;;;1.65;0.70;;;22.00;52.40;;;;;;6202934;23;20017;-75
2022/07/16 11:01:43;;;;;;;1.70;0.75;;;22.00;53.20;;;;;;6203608;23;20016;-75
2022/07/16 11:04:10;;;;;;;1.70;0.80;;;22.20;52.40;;;;;;6202795;23;20343;-75
2022/07/16 11:06:37;;;;;;;0.85;0.50;;;22.40;51.70;;;;;;6202578;23;20011;-75
2022/07/16 11:09:10;;;;;;;1.30;0.60;;;22.60;52.30;;;;;;5028958;28;20481;-79
2022/07/16 11:11:38;;;;;;;2.83;0.82;;;22.60;51.50;;;;;;5028194;28;20025;-74
2022/07/16 11:14:05;;;;;;;2.47;1.20;;;22.60;51.90;;;;;;5033454;28;20044;-74
2022/07/16 11:16:31;;;;;;;0.95;0.60;;;22.50;51.10;;;;;;5021090;28;20514;-74
2022/07/16 11:19:02;;;;;;;4.78;0.75;;;22.40;51.90;;;;;;5031015;28;20033;-74
2022/07/16 11:21:27;;;;;;;5.68;1.02;;;22.40;51.30;;;;;;5034632;28;20040;-74
2022/07/16 11:23:58;;;;;;;5.10;1.38;;;22.40;51.50;;;;;;5026867;28;20048;-75
2022/07/16 11:26:25;;;;;;;4.20;1.02;;;22.40;51.60;;;;;;5026710;28;20045;-74
2022/07/16 11:28:53;;;;;;;5.80;1.50;;;22.40;52.20;;;;;;5030965;28;20033;-75
2022/07/16 11:31:31;;;;;;;2.92;0.60;;;22.50;51.40;;;;;;5030657;28;20664;-74
2022/07/16 11:33:59;;;;;;;4.00;0.88;;;22.50;50.00;;;;;;5035254;28;20693;-74
2022/07/16 11:36:31;;;;;;;4.82;0.90;;;22.50;50.10;;;;;;5028988;28;20033;-74
2022/07/16 11:39:19;;;;;;;3.25;0.70;;;22.60;50.20;;;;;;5031668;28;20029;-74
2022/07/16 11:41:47;;;;;;;1.52;1.00;;;22.60;48.50;;;;;;5030288;28;20492;-74
2022/07/16 11:44:19;;;;;;;2.70;1.17;;;22.60;46.70;;;;;;5026284;28;20037;-74
2022/07/16 11:46:45;;;;;;;3.40;0.77;;;22.60;47.40;;;;;;5027484;28;20032;-75
2022/07/16 11:49:20;;;;;;;1.67;0.93;;;22.60;46.40;;;;;;5027397;28;20939;-74
2022/07/16 11:51:45;;;;;;;0.93;0.70;;;22.70;46.60;;;;;;5028617;28;20079;-74
2022/07/16 11:54:11;;;;;;;1.58;0.70;;;22.80;46.40;;;;;;5024032;28;20029;-74
2022/07/16 11:56:40;;;;;;;1.38;0.60;;;22.90;45.00;;;;;;5035418;28;20044;-75
2022/07/16 11:59:33;;;;;;;3.05;0.52;;;23.00;45.60;;;;;;5025320;28;20058;-74
2022/07/16 12:02:14;;;;;;;4.82;0.63;;;23.20;45.90;;;;;;5035760;28;20052;-74
2022/07/16 12:04:42;;;;;;;4.30;0.65;;;23.20;45.20;;;;;;5021964;28;20090;-75
2022/07/16 12:07:29;;;;;;;1.10;0.40;;;23.10;43.10;;;;;;5032441;28;20044;-75
2022/07/16 12:09:57;;;;;;;1.15;0.60;;;23.00;43.50;;;;;;5026328;28;20088;-75
2022/07/16 12:12:29;;;;;;;4.43;0.93;;;23.10;44.10;;;;;;5034398;28;20028;-75
2022/07/16 12:15:06;;;;;;;1.10;0.50;;;23.20;41.50;;;;;;5028639;28;20148;-76
2022/07/16 12:17:37;;;;;;;1.63;0.60;;;23.20;42.00;;;;;;5028707;28;20057;-75
2022/07/16 12:20:21;;;;;;;2.03;0.55;;;23.10;41.80;;;;;;5027204;28;20041;-77
2022/07/16 12:22:56;;;;;;;3.35;0.80;;;23.00;42.90;;;;;;5020117;28;20034;-76
2022/07/16 12:25:22;;;;;;;1.50;0.53;;;23.10;42.30;;;;;;5023291;28;20033;-75
2022/07/16 12:27:53;;;;;;;3.53;0.52;;;23.00;43.10;;;;;;5013328;28;21024;-76
2022/07/16 12:30:29;;;;;;;5.00;0.65;;;22.90;43.10;;;;;;5022733;28;20044;-75
2022/07/16 12:32:55;;;;;;;1.88;0.60;;;22.90;41.40;;;;;;5017655;28;20030;-76
2022/07/16 12:35:41;;;;;;;3.38;1.20;;;23.00;40.60;;;;;;5021095;28;20021;-75
2022/07/16 12:38:09;;;;;;;6.68;2.83;;;23.10;42.00;;;;;;5021023;28;20041;-75
2022/07/16 12:40:34;;;;;;;6.70;2.72;;;23.20;41.60;;;;;;5017209;28;20037;-75
2022/07/16 12:43:01;;;;;;;7.97;4.03;;;23.20;41.30;;;;;;5016508;28;20045;-74
2022/07/16 12:45:28;;;;;;;2.33;1.23;;;23.30;41.50;;;;;;5012296;28;20062;-76
2022/07/16 12:47:54;;;;;;;4.38;1.77;;;23.30;40.70;;;;;;5015638;28;20037;-78
2022/07/16 12:50:20;;;;;;;5.03;1.27;;;23.30;40.90;;;;;;5013392;28;20091;-72
2022/07/16 12:52:46;;;;;;;7.18;3.03;;;23.30;40.20;;;;;;5018808;28;20116;-72
2022/07/16 13:00:45;;;;;;;5.63;1.83;;;23.40;40.70;;;;;;5010863;28;20051;-71
2022/07/16 13:03:11;;;;;;;2.50;0.68;;;23.40;39.50;;;;;;5024119;28;20778;-67
2022/07/16 13:05:36;;;;;;;3.95;0.95;;;23.40;40.20;;;;;;5029021;28;20469;-73
2022/07/16 13:08:02;;;;;;;3.35;0.88;;;23.60;39.90;;;;;;5018301;28;20135;-67
2022/07/16 13:10:28;;;;;;;4.10;1.50;;;23.70;39.50;;;;;;5018131;28;20033;-68
2022/07/16 13:12:54;;;;;;;7.75;2.45;;;23.60;40.30;;;;;;5016967;28;20030;-68